sensor_id;sensor_type;location;lat;lon;timestamp;P1;durP1;ratioP1;P2;durP2;ratioP2
3417;SDS011;68007;51.312;12.372;2023-12-20T00:00:37;4.60;;;3.13;;
3417;SDS011;68007;51.312;12.372;2023-12-20T00:03:04;3.50;;;2.60;;
3417;SDS011;68007;51.312;12.372;2023-12-20T00:05:32;3.10;;;2.57;;
3417;SDS011;68007;51.312;12.372;2023-12-20T00:08:01;4.73;;;3.13;;
3417;SDS011;68007;51.312;12.372;2023-12-20T00:10:28;3.00;;;2.53;;
3417;SDS011;68007;51.312;12.372;2023-12-20T00:12:56;3.67;;;2.63;;
3417;SDS011;68007;51.312;12.372;2023-12-20T00:15:23;4.33;;;2.50;;
3417;SDS011;68007;51.312;12.372;2023-12-20T00:17:52;2.70;;;2.40;;
3417;SDS011;68007;51.312;12.372;2023-12-20T00:20:19;2.80;;;2.27;;
3417;SDS011;68007;51.312;12.372;2023-12-20T00:22:47;2.37;;;2.10;;
3417;SDS011;68007;51.312;12.372;2023-12-20T00:25:14;2.30;;;2.10;;
3417;SDS011;68007;51.312;12.372;2023-12-20T00:27:42;3.17;;;1.83;;
3417;SDS011;68007;51.312;12.372;2023-12-20T00:30:10;2.20;;;2.00;;
3417;SDS011;68007;51.312;12.372;2023-12-20T00:32:38;2.00;;;1.83;;
3417;SDS011;68007;51.312;12.372;2023-12-20T00:35:13;3.70;;;1.90;;
3417;SDS011;68007;51.312;12.372;2023-12-20T00:37:41;1.97;;;1.77;;
3417;SDS011;68007;51.312;12.372;2023-12-20T00:40:09;1.77;;;1.67;;
3417;SDS011;68007;51.312;12.372;2023-12-20T00:42:37;2.10;;;1.83;;
3417;SDS011;68007;51.312;12.372;2023-12-20T00:45:05;2.00;;;1.70;;
3417;SDS011;68007;51.312;12.372;2023-12-20T00:47:33;2.00;;;1.70;;
3417;SDS011;68007;51.312;12.372;2023-12-20T00:50:00;1.90;;;1.67;;
3417;SDS011;68007;51.312;12.372;2023-12-20T00:52:30;2.17;;;1.67;;
3417;SDS011;68007;51.312;12.372;2023-12-20T00:54:58;2.00;;;1.40;;
3417;SDS011;68007;51.312;12.372;2023-12-20T00:57:25;1.40;;;1.30;;
3417;SDS011;68007;51.312;12.372;2023-12-20T00:59:52;1.77;;;1.57;;
3417;SDS011;68007;51.312;12.372;2023-12-20T01:02:20;1.80;;;1.70;;
3417;SDS011;68007;51.312;12.372;2023-12-20T01:04:47;1.50;;;1.30;;
3417;SDS011;68007;51.312;12.372;2023-12-20T01:07:15;1.37;;;1.27;;
3417;SDS011;68007;51.312;12.372;2023-12-20T01:09:44;1.30;;;1.20;;
3417;SDS011;68007;51.312;12.372;2023-12-20T01:12:11;1.37;;;1.27;;
3417;SDS011;68007;51.312;12.372;2023-12-20T01:14:39;1.53;;;1.43;;
3417;SDS011;68007;51.312;12.372;2023-12-20T01:17:06;2.20;;;1.10;;
3417;SDS011;68007;51.312;12.372;2023-12-20T01:19:34;1.83;;;1.40;;
3417;SDS011;68007;51.312;12.372;2023-12-20T01:22:01;1.60;;;1.30;;
3417;SDS011;68007;51.312;12.372;2023-12-20T01:24:29;1.33;;;1.20;;
3417;SDS011;68007;51.312;12.372;2023-12-20T01:26:58;1.70;;;1.40;;
3417;SDS011;68007;51.312;12.372;2023-12-20T01:29:25;1.50;;;1.40;;
3417;SDS011;68007;51.312;12.372;2023-12-20T01:31:53;1.17;;;1.10;;
3417;SDS011;68007;51.312;12.372;2023-12-20T01:34:20;1.40;;;1.30;;
3417;SDS011;68007;51.312;12.372;2023-12-20T01:36:47;1.40;;;1.30;;
3417;SDS011;68007;51.312;12.372;2023-12-20T01:39:15;1.00;;;1.00;;
3417;SDS011;68007;51.312;12.372;2023-12-20T01:41:42;1.13;;;1.00;;
3417;SDS011;68007;51.312;12.372;2023-12-20T01:44:12;1.43;;;1.33;;
3417;SDS011;68007;51.312;12.372;2023-12-20T01:46:39;1.53;;;1.30;;
3417;SDS011;68007;51.312;12.372;2023-12-20T01:49:07;1.70;;;1.20;;
3417;SDS011;68007;51.312;12.372;2023-12-20T01:51:35;1.40;;;1.20;;
3417;SDS011;68007;51.312;12.372;2023-12-20T01:54:03;1.50;;;1.40;;
3417;SDS011;68007;51.312;12.372;2023-12-20T01:56:31;1.80;;;1.40;;
3417;SDS011;68007;51.312;12.372;2023-12-20T01:59:00;1.30;;;1.20;;
3417;SDS011;68007;51.312;12.372;2023-12-20T02:01:29;1.13;;;1.07;;
3417;SDS011;68007;51.312;12.372;2023-12-20T02:03:58;1.40;;;1.30;;
3417;SDS011;68007;51.312;12.372;2023-12-20T02:06:28;1.40;;;1.30;;
3417;SDS011;68007;51.312;12.372;2023-12-20T02:08:57;1.23;;;1.10;;
3417;SDS011;68007;51.312;12.372;2023-12-20T02:11:25;1.00;;;1.00;;
3417;SDS011;68007;51.312;12.372;2023-12-20T02:13:53;1.20;;;1.10;;
3417;SDS011;68007;51.312;12.372;2023-12-20T02:16:21;5.97;;;1.33;;
3417;SDS011;68007;51.312;12.372;2023-12-20T02:18:50;2.17;;;1.67;;
3417;SDS011;68007;51.312;12.372;2023-12-20T02:21:17;1.00;;;1.00;;
3417;SDS011;68007;51.312;12.372;2023-12-20T02:23:46;1.27;;;1.17;;
3417;SDS011;68007;51.312;12.372;2023-12-20T02:26:13;1.40;;;1.10;;
3417;SDS011;68007;51.312;12.372;2023-12-20T02:28:41;1.30;;;1.10;;
3417;SDS011;68007;51.312;12.372;2023-12-20T02:31:08;1.20;;;1.10;;
3417;SDS011;68007;51.312;12.372;2023-12-20T02:33:36;1.73;;;1.63;;
3417;SDS011;68007;51.312;12.372;2023-12-20T02:36:06;1.90;;;1.20;;
3417;SDS011;68007;51.312;12.372;2023-12-20T02:38:33;1.10;;;1.00;;
3417;SDS011;68007;51.312;12.372;2023-12-20T02:41:02;1.80;;;1.20;;
3417;SDS011;68007;51.312;12.372;2023-12-20T02:43:30;1.30;;;1.07;;
3417;SDS011;68007;51.312;12.372;2023-12-20T02:45:57;1.50;;;1.33;;
3417;SDS011;68007;51.312;12.372;2023-12-20T02:48:25;1.27;;;1.17;;
3417;SDS011;68007;51.312;12.372;2023-12-20T02:50:52;1.23;;;1.13;;
3417;SDS011;68007;51.312;12.372;2023-12-20T02:53:20;1.27;;;1.17;;
3417;SDS011;68007;51.312;12.372;2023-12-20T02:55:47;1.20;;;1.10;;
3417;SDS011;68007;51.312;12.372;2023-12-20T02:58:16;1.40;;;1.30;;
3417;SDS011;68007;51.312;12.372;2023-12-20T03:00:44;1.30;;;1.20;;
3417;SDS011;68007;51.312;12.372;2023-12-20T03:03:11;1.30;;;1.20;;
3417;SDS011;68007;51.312;12.372;2023-12-20T03:05:39;1.77;;;1.50;;
3417;SDS011;68007;51.312;12.372;2023-12-20T03:08:06;1.20;;;1.10;;
3417;SDS011;68007;51.312;12.372;2023-12-20T03:10:34;1.40;;;1.30;;
3417;SDS011;68007;51.312;12.372;2023-12-20T03:13:01;1.20;;;1.10;;
3417;SDS011;68007;51.312;12.372;2023-12-20T03:15:30;1.30;;;1.20;;
3417;SDS011;68007;51.312;12.372;2023-12-20T03:17:58;1.40;;;1.30;;
3417;SDS011;68007;51.312;12.372;2023-12-20T03:20:25;1.20;;;1.10;;
3417;SDS011;68007;51.312;12.372;2023-12-20T03:22:53;1.20;;;1.10;;
3417;SDS011;68007;51.312;12.372;2023-12-20T03:25:20;1.47;;;1.37;;
3417;SDS011;68007;51.312;12.372;2023-12-20T03:27:48;1.20;;;1.10;;
3417;SDS011;68007;51.312;12.372;2023-12-20T03:30:15;1.33;;;1.23;;
3417;SDS011;68007;51.312;12.372;2023-12-20T03:32:44;1.30;;;1.20;;
3417;SDS011;68007;51.312;12.372;2023-12-20T03:35:13;1.20;;;1.10;;
3417;SDS011;68007;51.312;12.372;2023-12-20T03:37:41;1.03;;;1.00;;
3417;SDS011;68007;51.312;12.372;2023-12-20T03:40:09;1.17;;;1.07;;
3417;SDS011;68007;51.312;12.372;2023-12-20T03:42:37;1.10;;;1.00;;
3417;SDS011;68007;51.312;12.372;2023-12-20T03:45:05;1.10;;;1.10;;
3417;SDS011;68007;51.312;12.372;2023-12-20T03:47:33;1.90;;;1.23;;
3417;SDS011;68007;51.312;12.372;2023-12-20T03:50:02;0.87;;;0.87;;
3417;SDS011;68007;51.312;12.372;2023-12-20T03:52:30;1.00;;;1.00;;
3417;SDS011;68007;51.312;12.372;2023-12-20T03:54:57;1.20;;;1.10;;
3417;SDS011;68007;51.312;12.372;2023-12-20T03:57:25;1.40;;;1.30;;
3417;SDS011;68007;51.312;12.372;2023-12-20T03:59:52;1.40;;;1.30;;
3417;SDS011;68007;51.312;12.372;2023-12-20T04:02:20;1.30;;;1.20;;
3417;SDS011;68007;51.312;12.372;2023-12-20T04:04:47;1.43;;;1.33;;
3417;SDS011;68007;51.312;12.372;2023-12-20T04:07:16;1.47;;;1.30;;
3417;SDS011;68007;51.312;12.372;2023-12-20T04:09:43;1.40;;;1.30;;
3417;SDS011;68007;51.312;12.372;2023-12-20T04:12:13;1.30;;;1.20;;
3417;SDS011;68007;51.312;12.372;2023-12-20T04:14:41;1.53;;;1.43;;
3417;SDS011;68007;51.312;12.372;2023-12-20T04:17:08;1.20;;;1.10;;
3417;SDS011;68007;51.312;12.372;2023-12-20T04:19:36;1.10;;;1.10;;
3417;SDS011;68007;51.312;12.372;2023-12-20T04:22:03;1.43;;;1.33;;
3417;SDS011;68007;51.312;12.372;2023-12-20T04:24:32;1.63;;;1.40;;
3417;SDS011;68007;51.312;12.372;2023-12-20T04:27:00;1.67;;;1.57;;
3417;SDS011;68007;51.312;12.372;2023-12-20T04:29:27;1.60;;;1.50;;
3417;SDS011;68007;51.312;12.372;2023-12-20T04:31:55;1.50;;;1.40;;
3417;SDS011;68007;51.312;12.372;2023-12-20T04:34:22;1.67;;;1.57;;
3417;SDS011;68007;51.312;12.372;2023-12-20T04:36:50;1.80;;;1.70;;
3417;SDS011;68007;51.312;12.372;2023-12-20T04:39:17;1.80;;;1.70;;
3417;SDS011;68007;51.312;12.372;2023-12-20T04:41:46;1.40;;;1.30;;
3417;SDS011;68007;51.312;12.372;2023-12-20T04:44:15;1.47;;;1.37;;
3417;SDS011;68007;51.312;12.372;2023-12-20T04:46:42;1.77;;;1.67;;
3417;SDS011;68007;51.312;12.372;2023-12-20T04:49:10;2.10;;;1.93;;
3417;SDS011;68007;51.312;12.372;2023-12-20T04:51:37;1.80;;;1.70;;
3417;SDS011;68007;51.312;12.372;2023-12-20T04:54:05;1.70;;;1.60;;
3417;SDS011;68007;51.312;12.372;2023-12-20T04:56:32;2.40;;;1.90;;
3417;SDS011;68007;51.312;12.372;2023-12-20T04:59:01;1.83;;;1.73;;
3417;SDS011;68007;51.312;12.372;2023-12-20T05:01:29;2.43;;;2.00;;
3417;SDS011;68007;51.312;12.372;2023-12-20T05:03:56;2.03;;;1.93;;
3417;SDS011;68007;51.312;12.372;2023-12-20T05:06:23;1.80;;;1.67;;
3417;SDS011;68007;51.312;12.372;2023-12-20T05:08:51;2.23;;;2.03;;
3417;SDS011;68007;51.312;12.372;2023-12-20T05:11:19;4.30;;;2.50;;
3417;SDS011;68007;51.312;12.372;2023-12-20T05:13:46;2.67;;;2.00;;
3417;SDS011;68007;51.312;12.372;2023-12-20T05:16:15;3.33;;;2.00;;
3417;SDS011;68007;51.312;12.372;2023-12-20T05:18:43;2.87;;;2.40;;
3417;SDS011;68007;51.312;12.372;2023-12-20T05:21:11;1.90;;;1.80;;
3417;SDS011;68007;51.312;12.372;2023-12-20T05:23:39;2.10;;;2.00;;
3417;SDS011;68007;51.312;12.372;2023-12-20T05:26:06;2.57;;;2.20;;
3417;SDS011;68007;51.312;12.372;2023-12-20T05:28:34;2.80;;;2.27;;
3417;SDS011;68007;51.312;12.372;2023-12-20T05:31:01;2.70;;;2.50;;
3417;SDS011;68007;51.312;12.372;2023-12-20T05:33:30;3.80;;;2.20;;
3417;SDS011;68007;51.312;12.372;2023-12-20T05:35:58;2.17;;;2.07;;
3417;SDS011;68007;51.312;12.372;2023-12-20T05:38:25;3.13;;;2.20;;
3417;SDS011;68007;51.312;12.372;2023-12-20T05:40:53;2.43;;;2.23;;
3417;SDS011;68007;51.312;12.372;2023-12-20T05:43:20;3.00;;;2.67;;
3417;SDS011;68007;51.312;12.372;2023-12-20T05:45:48;2.97;;;2.30;;
3417;SDS011;68007;51.312;12.372;2023-12-20T05:48:15;2.53;;;2.03;;
3417;SDS011;68007;51.312;12.372;2023-12-20T05:50:44;1.80;;;1.70;;
3417;SDS011;68007;51.312;12.372;2023-12-20T05:53:12;3.30;;;2.37;;
3417;SDS011;68007;51.312;12.372;2023-12-20T05:55:39;2.37;;;2.17;;
3417;SDS011;68007;51.312;12.372;2023-12-20T05:58:07;2.50;;;2.30;;
3417;SDS011;68007;51.312;12.372;2023-12-20T06:00:37;2.67;;;2.47;;
3417;SDS011;68007;51.312;12.372;2023-12-20T06:03:05;2.50;;;2.30;;
3417;SDS011;68007;51.312;12.372;2023-12-20T06:05:32;3.50;;;2.53;;
3417;SDS011;68007;51.312;12.372;2023-12-20T06:08:01;3.20;;;2.60;;
3417;SDS011;68007;51.312;12.372;2023-12-20T06:10:29;2.53;;;2.33;;
3417;SDS011;68007;51.312;12.372;2023-12-20T06:12:56;2.80;;;2.50;;
3417;SDS011;68007;51.312;12.372;2023-12-20T06:15:24;2.73;;;2.50;;
3417;SDS011;68007;51.312;12.372;2023-12-20T06:17:52;2.30;;;2.10;;
3417;SDS011;68007;51.312;12.372;2023-12-20T06:20:20;3.93;;;2.43;;
3417;SDS011;68007;51.312;12.372;2023-12-20T06:22:47;2.33;;;2.13;;
3417;SDS011;68007;51.312;12.372;2023-12-20T06:25:16;2.60;;;2.27;;
3417;SDS011;68007;51.312;12.372;2023-12-20T06:27:43;2.37;;;2.20;;
3417;SDS011;68007;51.312;12.372;2023-12-20T06:30:11;3.20;;;2.50;;
3417;SDS011;68007;51.312;12.372;2023-12-20T06:32:39;2.10;;;2.00;;
3417;SDS011;68007;51.312;12.372;2023-12-20T06:35:08;2.20;;;2.00;;
3417;SDS011;68007;51.312;12.372;2023-12-20T06:37:36;3.30;;;2.87;;
3417;SDS011;68007;51.312;12.372;2023-12-20T06:40:04;3.70;;;2.40;;
3417;SDS011;68007;51.312;12.372;2023-12-20T06:42:33;2.40;;;2.20;;
3417;SDS011;68007;51.312;12.372;2023-12-20T06:45:01;2.37;;;2.17;;
3417;SDS011;68007;51.312;12.372;2023-12-20T06:47:29;1.57;;;1.47;;
3417;SDS011;68007;51.312;12.372;2023-12-20T06:49:56;2.23;;;1.90;;
3417;SDS011;68007;51.312;12.372;2023-12-20T06:52:24;4.33;;;2.20;;
3417;SDS011;68007;51.312;12.372;2023-12-20T06:54:51;3.00;;;2.27;;
3417;SDS011;68007;51.312;12.372;2023-12-20T06:57:19;2.10;;;1.90;;
3417;SDS011;68007;51.312;12.372;2023-12-20T06:59:47;2.63;;;2.43;;
3417;SDS011;68007;51.312;12.372;2023-12-20T07:02:15;2.73;;;2.30;;
3417;SDS011;68007;51.312;12.372;2023-12-20T07:04:43;4.13;;;2.30;;
3417;SDS011;68007;51.312;12.372;2023-12-20T07:07:10;5.03;;;2.57;;
3417;SDS011;68007;51.312;12.372;2023-12-20T07:09:38;3.03;;;2.00;;
3417;SDS011;68007;51.312;12.372;2023-12-20T07:12:08;3.93;;;2.33;;
3417;SDS011;68007;51.312;12.372;2023-12-20T07:14:36;3.20;;;2.37;;
3417;SDS011;68007;51.312;12.372;2023-12-20T07:17:04;2.40;;;1.87;;
3417;SDS011;68007;51.312;12.372;2023-12-20T07:19:37;2.13;;;1.97;;
3417;SDS011;68007;51.312;12.372;2023-12-20T07:22:05;3.80;;;2.40;;
3417;SDS011;68007;51.312;12.372;2023-12-20T07:24:33;3.43;;;1.90;;
3417;SDS011;68007;51.312;12.372;2023-12-20T07:27:00;2.87;;;2.10;;
3417;SDS011;68007;51.312;12.372;2023-12-20T07:29:28;5.83;;;1.90;;
3417;SDS011;68007;51.312;12.372;2023-12-20T07:31:56;2.93;;;1.37;;
3417;SDS011;68007;51.312;12.372;2023-12-20T07:34:25;4.80;;;1.60;;
3417;SDS011;68007;51.312;12.372;2023-12-20T07:36:52;2.90;;;1.57;;
3417;SDS011;68007;51.312;12.372;2023-12-20T07:39:20;2.30;;;1.33;;
3417;SDS011;68007;51.312;12.372;2023-12-20T07:41:47;1.80;;;1.50;;
3417;SDS011;68007;51.312;12.372;2023-12-20T07:44:15;4.20;;;1.20;;
3417;SDS011;68007;51.312;12.372;2023-12-20T07:46:42;2.30;;;1.30;;
3417;SDS011;68007;51.312;12.372;2023-12-20T07:49:10;2.47;;;1.20;;
3417;SDS011;68007;51.312;12.372;2023-12-20T07:51:39;2.47;;;1.40;;
3417;SDS011;68007;51.312;12.372;2023-12-20T07:54:06;5.10;;;1.70;;
3417;SDS011;68007;51.312;12.372;2023-12-20T07:56:34;2.63;;;1.40;;
3417;SDS011;68007;51.312;12.372;2023-12-20T07:59:02;1.70;;;1.37;;
3417;SDS011;68007;51.312;12.372;2023-12-20T08:01:29;3.20;;;1.60;;
3417;SDS011;68007;51.312;12.372;2023-12-20T08:03:57;3.53;;;1.20;;
3417;SDS011;68007;51.312;12.372;2023-12-20T08:06:24;2.20;;;1.47;;
3417;SDS011;68007;51.312;12.372;2023-12-20T08:08:53;6.37;;;1.63;;
3417;SDS011;68007;51.312;12.372;2023-12-20T08:11:21;1.83;;;1.37;;
3417;SDS011;68007;51.312;12.372;2023-12-20T08:13:48;1.80;;;1.30;;
3417;SDS011;68007;51.312;12.372;2023-12-20T08:16:17;1.93;;;1.30;;
3417;SDS011;68007;51.312;12.372;2023-12-20T08:18:44;3.10;;;1.20;;
3417;SDS011;68007;51.312;12.372;2023-12-20T08:21:12;1.93;;;1.60;;
3417;SDS011;68007;51.312;12.372;2023-12-20T08:23:40;4.17;;;1.40;;
3417;SDS011;68007;51.312;12.372;2023-12-20T08:26:08;3.70;;;1.43;;
3417;SDS011;68007;51.312;12.372;2023-12-20T08:28:36;2.30;;;1.30;;
3417;SDS011;68007;51.312;12.372;2023-12-20T08:31:04;2.30;;;1.10;;
3417;SDS011;68007;51.312;12.372;2023-12-20T08:33:31;4.33;;;1.50;;
3417;SDS011;68007;51.312;12.372;2023-12-20T08:35:59;6.03;;;1.87;;
3417;SDS011;68007;51.312;12.372;2023-12-20T08:38:31;4.67;;;1.77;;
3417;SDS011;68007;51.312;12.372;2023-12-20T08:40:58;2.60;;;1.40;;
3417;SDS011;68007;51.312;12.372;2023-12-20T08:43:28;2.03;;;1.33;;
3417;SDS011;68007;51.312;12.372;2023-12-20T08:45:55;3.33;;;1.63;;
3417;SDS011;68007;51.312;12.372;2023-12-20T08:48:23;6.87;;;2.00;;
3417;SDS011;68007;51.312;12.372;2023-12-20T08:50:51;4.50;;;1.60;;
3417;SDS011;68007;51.312;12.372;2023-12-20T08:53:18;2.20;;;1.47;;
3417;SDS011;68007;51.312;12.372;2023-12-20T08:55:46;4.60;;;1.70;;
3417;SDS011;68007;51.312;12.372;2023-12-20T08:58:13;3.77;;;1.60;;
3417;SDS011;68007;51.312;12.372;2023-12-20T09:00:42;3.47;;;1.53;;
3417;SDS011;68007;51.312;12.372;2023-12-20T09:03:10;3.33;;;1.40;;
3417;SDS011;68007;51.312;12.372;2023-12-20T09:05:37;11.03;;;1.40;;
3417;SDS011;68007;51.312;12.372;2023-12-20T09:08:05;3.37;;;1.37;;
3417;SDS011;68007;51.312;12.372;2023-12-20T09:10:33;3.83;;;1.50;;
3417;SDS011;68007;51.312;12.372;2023-12-20T09:13:01;3.90;;;1.77;;
3417;SDS011;68007;51.312;12.372;2023-12-20T09:15:29;1.97;;;1.30;;
3417;SDS011;68007;51.312;12.372;2023-12-20T09:18:01;1.53;;;1.43;;
3417;SDS011;68007;51.312;12.372;2023-12-20T09:20:29;5.33;;;1.27;;
3417;SDS011;68007;51.312;12.372;2023-12-20T09:22:57;4.80;;;1.80;;
3417;SDS011;68007;51.312;12.372;2023-12-20T09:25:24;9.80;;;2.27;;
3417;SDS011;68007;51.312;12.372;2023-12-20T09:27:52;3.40;;;1.50;;
3417;SDS011;68007;51.312;12.372;2023-12-20T09:30:20;6.13;;;1.50;;
3417;SDS011;68007;51.312;12.372;2023-12-20T09:32:48;5.13;;;1.50;;
3417;SDS011;68007;51.312;12.372;2023-12-20T09:35:16;5.50;;;1.93;;
3417;SDS011;68007;51.312;12.372;2023-12-20T09:37:44;5.43;;;1.53;;
3417;SDS011;68007;51.312;12.372;2023-12-20T09:40:13;6.77;;;2.00;;
3417;SDS011;68007;51.312;12.372;2023-12-20T09:42:43;3.90;;;1.70;;
3417;SDS011;68007;51.312;12.372;2023-12-20T09:45:16;5.67;;;1.63;;
3417;SDS011;68007;51.312;12.372;2023-12-20T09:47:47;4.20;;;1.77;;
3417;SDS011;68007;51.312;12.372;2023-12-20T09:50:18;4.13;;;1.70;;
3417;SDS011;68007;51.312;12.372;2023-12-20T09:52:47;5.97;;;2.43;;
3417;SDS011;68007;51.312;12.372;2023-12-20T09:55:17;3.07;;;1.97;;
3417;SDS011;68007;51.312;12.372;2023-12-20T09:57:45;4.77;;;2.00;;
3417;SDS011;68007;51.312;12.372;2023-12-20T10:00:13;4.70;;;1.70;;
3417;SDS011;68007;51.312;12.372;2023-12-20T10:02:45;4.93;;;2.10;;
3417;SDS011;68007;51.312;12.372;2023-12-20T10:05:18;5.07;;;1.87;;
3417;SDS011;68007;51.312;12.372;2023-12-20T10:07:53;8.57;;;1.97;;
3417;SDS011;68007;51.312;12.372;2023-12-20T10:10:21;6.73;;;1.70;;
3417;SDS011;68007;51.312;12.372;2023-12-20T10:13:00;6.20;;;2.13;;
3417;SDS011;68007;51.312;12.372;2023-12-20T10:15:29;4.60;;;2.57;;
3417;SDS011;68007;51.312;12.372;2023-12-20T10:17:57;5.17;;;1.87;;
3417;SDS011;68007;51.312;12.372;2023-12-20T10:20:26;4.17;;;2.17;;
3417;SDS011;68007;51.312;12.372;2023-12-20T10:22:55;7.00;;;2.43;;
3417;SDS011;68007;51.312;12.372;2023-12-20T10:25:23;2.00;;;1.80;;
3417;SDS011;68007;51.312;12.372;2023-12-20T10:30:36;7.03;;;2.23;;
3417;SDS011;68007;51.312;12.372;2023-12-20T10:33:05;5.17;;;2.47;;
3417;SDS011;68007;51.312;12.372;2023-12-20T10:35:35;10.43;;;2.20;;
3417;SDS011;68007;51.312;12.372;2023-12-20T10:38:03;7.70;;;2.63;;
3417;SDS011;68007;51.312;12.372;2023-12-20T10:40:32;4.80;;;1.70;;
3417;SDS011;68007;51.312;12.372;2023-12-20T10:43:03;6.07;;;2.83;;
3417;SDS011;68007;51.312;12.372;2023-12-20T10:45:31;8.57;;;2.00;;
3417;SDS011;68007;51.312;12.372;2023-12-20T10:48:01;9.13;;;2.03;;
3417;SDS011;68007;51.312;12.372;2023-12-20T10:50:29;7.23;;;2.47;;
3417;SDS011;68007;51.312;12.372;2023-12-20T10:52:58;3.73;;;2.00;;
3417;SDS011;68007;51.312;12.372;2023-12-20T10:55:26;6.50;;;1.90;;
3417;SDS011;68007;51.312;12.372;2023-12-20T10:57:54;7.67;;;2.20;;
3417;SDS011;68007;51.312;12.372;2023-12-20T11:00:27;5.03;;;1.97;;
3417;SDS011;68007;51.312;12.372;2023-12-20T11:02:56;5.87;;;1.77;;
3417;SDS011;68007;51.312;12.372;2023-12-20T11:05:32;3.57;;;1.83;;
3417;SDS011;68007;51.312;12.372;2023-12-20T11:08:09;5.53;;;1.60;;
3417;SDS011;68007;51.312;12.372;2023-12-20T11:10:40;6.73;;;1.90;;
3417;SDS011;68007;51.312;12.372;2023-12-20T11:13:16;2.87;;;1.13;;
3417;SDS011;68007;51.312;12.372;2023-12-20T11:15:49;10.27;;;1.80;;
3417;SDS011;68007;51.312;12.372;2023-12-20T11:18:16;4.67;;;2.10;;
3417;SDS011;68007;51.312;12.372;2023-12-20T11:20:44;3.43;;;1.60;;
3417;SDS011;68007;51.312;12.372;2023-12-20T11:23:13;4.43;;;1.77;;
3417;SDS011;68007;51.312;12.372;2023-12-20T11:25:47;12.43;;;1.93;;
3417;SDS011;68007;51.312;12.372;2023-12-20T11:28:15;7.87;;;1.90;;
3417;SDS011;68007;51.312;12.372;2023-12-20T11:30:49;7.60;;;2.10;;
3417;SDS011;68007;51.312;12.372;2023-12-20T11:33:21;3.70;;;1.50;;
3417;SDS011;68007;51.312;12.372;2023-12-20T11:35:49;4.77;;;1.50;;
3417;SDS011;68007;51.312;12.372;2023-12-20T11:38:19;8.00;;;1.97;;
3417;SDS011;68007;51.312;12.372;2023-12-20T11:40:47;6.23;;;1.70;;
3417;SDS011;68007;51.312;12.372;2023-12-20T11:43:29;6.77;;;1.83;;
3417;SDS011;68007;51.312;12.372;2023-12-20T11:46:02;7.13;;;2.03;;
3417;SDS011;68007;51.312;12.372;2023-12-20T11:48:31;5.43;;;1.93;;
3417;SDS011;68007;51.312;12.372;2023-12-20T11:50:59;6.00;;;2.03;;
3417;SDS011;68007;51.312;12.372;2023-12-20T11:53:28;6.20;;;1.97;;
3417;SDS011;68007;51.312;12.372;2023-12-20T11:55:56;11.77;;;2.20;;
3417;SDS011;68007;51.312;12.372;2023-12-20T11:58:24;7.67;;;2.07;;
3417;SDS011;68007;51.312;12.372;2023-12-20T12:00:53;3.07;;;1.47;;
3417;SDS011;68007;51.312;12.372;2023-12-20T12:03:22;11.10;;;2.10;;
3417;SDS011;68007;51.312;12.372;2023-12-20T12:05:49;9.40;;;2.07;;
3417;SDS011;68007;51.312;12.372;2023-12-20T12:08:17;5.50;;;2.53;;
3417;SDS011;68007;51.312;12.372;2023-12-20T12:10:46;6.20;;;2.27;;
3417;SDS011;68007;51.312;12.372;2023-12-20T12:13:13;2.97;;;1.40;;
3417;SDS011;68007;51.312;12.372;2023-12-20T12:15:41;3.83;;;1.60;;
3417;SDS011;68007;51.312;12.372;2023-12-20T12:18:10;7.10;;;2.13;;
3417;SDS011;68007;51.312;12.372;2023-12-20T12:20:38;8.23;;;2.37;;
3417;SDS011;68007;51.312;12.372;2023-12-20T12:23:05;9.70;;;1.80;;
3417;SDS011;68007;51.312;12.372;2023-12-20T12:25:34;6.77;;;1.70;;
3417;SDS011;68007;51.312;12.372;2023-12-20T12:28:04;3.50;;;2.20;;
3417;SDS011;68007;51.312;12.372;2023-12-20T12:30:32;7.67;;;2.00;;
3417;SDS011;68007;51.312;12.372;2023-12-20T12:33:00;4.80;;;1.90;;
3417;SDS011;68007;51.312;12.372;2023-12-20T12:35:27;4.50;;;1.90;;
3417;SDS011;68007;51.312;12.372;2023-12-20T12:37:55;6.20;;;2.27;;
3417;SDS011;68007;51.312;12.372;2023-12-20T12:40:26;7.50;;;2.20;;
3417;SDS011;68007;51.312;12.372;2023-12-20T12:42:53;5.17;;;2.33;;
3417;SDS011;68007;51.312;12.372;2023-12-20T12:45:22;3.73;;;1.67;;
3417;SDS011;68007;51.312;12.372;2023-12-20T12:47:50;4.57;;;1.53;;
3417;SDS011;68007;51.312;12.372;2023-12-20T12:50:20;3.27;;;1.63;;
3417;SDS011;68007;51.312;12.372;2023-12-20T12:52:48;4.80;;;1.60;;
3417;SDS011;68007;51.312;12.372;2023-12-20T12:55:15;8.93;;;2.47;;
3417;SDS011;68007;51.312;12.372;2023-12-20T12:57:43;4.63;;;1.60;;
3417;SDS011;68007;51.312;12.372;2023-12-20T13:00:11;6.80;;;1.80;;
3417;SDS011;68007;51.312;12.372;2023-12-20T13:02:40;6.37;;;2.17;;
3417;SDS011;68007;51.312;12.372;2023-12-20T13:05:08;4.90;;;2.00;;
3417;SDS011;68007;51.312;12.372;2023-12-20T13:07:36;7.03;;;2.27;;
3417;SDS011;68007;51.312;12.372;2023-12-20T13:10:05;7.57;;;1.73;;
3417;SDS011;68007;51.312;12.372;2023-12-20T13:12:33;5.80;;;1.80;;
3417;SDS011;68007;51.312;12.372;2023-12-20T13:15:01;11.23;;;1.80;;
3417;SDS011;68007;51.312;12.372;2023-12-20T13:17:29;4.40;;;1.80;;
3417;SDS011;68007;51.312;12.372;2023-12-20T13:19:58;4.67;;;1.60;;
3417;SDS011;68007;51.312;12.372;2023-12-20T13:22:25;3.50;;;1.70;;
3417;SDS011;68007;51.312;12.372;2023-12-20T13:24:53;5.63;;;1.57;;
3417;SDS011;68007;51.312;12.372;2023-12-20T13:27:21;2.70;;;1.37;;
3417;SDS011;68007;51.312;12.372;2023-12-20T13:29:48;5.40;;;1.90;;
3417;SDS011;68007;51.312;12.372;2023-12-20T13:32:16;8.47;;;2.00;;
3417;SDS011;68007;51.312;12.372;2023-12-20T13:34:45;4.97;;;1.60;;
3417;SDS011;68007;51.312;12.372;2023-12-20T13:37:14;4.53;;;1.77;;
3417;SDS011;68007;51.312;12.372;2023-12-20T13:39:42;7.33;;;1.37;;
3417;SDS011;68007;51.312;12.372;2023-12-20T13:42:09;5.47;;;1.60;;
3417;SDS011;68007;51.312;12.372;2023-12-20T13:44:37;6.30;;;1.57;;
3417;SDS011;68007;51.312;12.372;2023-12-20T13:47:04;3.90;;;1.60;;
3417;SDS011;68007;51.312;12.372;2023-12-20T13:49:32;3.83;;;1.90;;
3417;SDS011;68007;51.312;12.372;2023-12-20T13:52:01;4.40;;;1.63;;
3417;SDS011;68007;51.312;12.372;2023-12-20T13:54:31;4.70;;;1.43;;
3417;SDS011;68007;51.312;12.372;2023-12-20T13:56:58;4.07;;;1.83;;
3417;SDS011;68007;51.312;12.372;2023-12-20T13:59:26;2.67;;;1.40;;
3417;SDS011;68007;51.312;12.372;2023-12-20T14:01:53;3.23;;;1.33;;
3417;SDS011;68007;51.312;12.372;2023-12-20T14:04:22;5.13;;;1.60;;
3417;SDS011;68007;51.312;12.372;2023-12-20T14:06:50;5.47;;;1.90;;
3417;SDS011;68007;51.312;12.372;2023-12-20T14:09:17;3.60;;;1.37;;
3417;SDS011;68007;51.312;12.372;2023-12-20T14:11:46;2.00;;;1.40;;
3417;SDS011;68007;51.312;12.372;2023-12-20T14:14:14;3.67;;;1.47;;
3417;SDS011;68007;51.312;12.372;2023-12-20T14:16:41;3.50;;;1.30;;
3417;SDS011;68007;51.312;12.372;2023-12-20T14:19:10;6.43;;;1.47;;
3417;SDS011;68007;51.312;12.372;2023-12-20T14:21:38;1.57;;;1.30;;
3417;SDS011;68007;51.312;12.372;2023-12-20T14:24:06;6.03;;;1.40;;
3417;SDS011;68007;51.312;12.372;2023-12-20T14:26:33;4.80;;;1.80;;
3417;SDS011;68007;51.312;12.372;2023-12-20T14:29:02;2.43;;;1.50;;
3417;SDS011;68007;51.312;12.372;2023-12-20T14:31:30;4.67;;;1.20;;
3417;SDS011;68007;51.312;12.372;2023-12-20T14:33:57;2.70;;;1.53;;
3417;SDS011;68007;51.312;12.372;2023-12-20T14:36:25;5.63;;;2.40;;
3417;SDS011;68007;51.312;12.372;2023-12-20T14:38:52;2.03;;;1.13;;
3417;SDS011;68007;51.312;12.372;2023-12-20T14:41:20;4.37;;;1.70;;
3417;SDS011;68007;51.312;12.372;2023-12-20T14:43:50;3.50;;;1.23;;
3417;SDS011;68007;51.312;12.372;2023-12-20T14:46:20;4.27;;;1.47;;
3417;SDS011;68007;51.312;12.372;2023-12-20T14:48:48;2.70;;;1.40;;
3417;SDS011;68007;51.312;12.372;2023-12-20T14:51:15;4.20;;;1.40;;
3417;SDS011;68007;51.312;12.372;2023-12-20T14:53:43;2.40;;;1.40;;
3417;SDS011;68007;51.312;12.372;2023-12-20T14:56:12;4.27;;;1.70;;